createdAt,value
2018-06-29T00:00:52.717Z,24.73
2018-06-29T00:01:53.038Z,24.83
2018-06-29T00:02:53.014Z,24.78
2018-06-29T00:03:53.186Z,24.83
2018-06-29T00:04:53.361Z,24.83
2018-06-29T00:05:53.537Z,24.87
2018-06-29T00:06:53.711Z,24.80
2018-06-29T00:07:53.884Z,24.83
2018-06-29T00:08:54.061Z,24.90
2018-06-29T00:10:46.313Z,24.93
2018-06-29T00:11:46.485Z,24.90
2018-06-29T00:12:46.665Z,24.80
2018-06-29T00:13:46.830Z,24.81
2018-06-29T00:14:47.000Z,24.80
2018-06-29T00:15:47.174Z,24.77
2018-06-29T00:16:47.348Z,24.64
2018-06-29T00:17:47.518Z,24.65
2018-06-29T00:18:47.689Z,24.64
2018-06-29T00:19:47.867Z,24.60
2018-06-29T00:20:48.050Z,24.50
2018-06-29T00:21:48.219Z,24.53
2018-06-29T00:22:48.386Z,24.50
2018-06-29T00:23:48.561Z,24.47
2018-06-29T00:24:48.731Z,24.47
2018-06-29T00:25:48.903Z,24.49
2018-06-29T00:26:49.077Z,24.50
2018-06-29T00:27:49.247Z,24.47
2018-06-29T00:28:49.416Z,24.40
2018-06-29T00:29:49.595Z,24.40
2018-06-29T00:30:49.764Z,24.39
2018-06-29T00:31:49.944Z,24.42
2018-06-29T00:32:50.116Z,24.39
2018-06-29T00:33:50.286Z,24.37
2018-06-29T00:34:50.468Z,24.46
2018-06-29T00:35:50.636Z,24.39
2018-06-29T00:36:50.882Z,24.35
2018-06-29T00:37:50.981Z,24.40
2018-06-29T00:38:51.154Z,24.42
2018-06-29T00:39:51.326Z,24.37
2018-06-29T00:40:51.506Z,24.28
2018-06-29T00:41:51.674Z,24.24
2018-06-29T00:42:51.848Z,24.05
2018-06-29T00:43:52.021Z,24.13
2018-06-29T00:44:52.196Z,24.03
2018-06-29T00:45:52.399Z,23.94
2018-06-29T00:46:52.564Z,23.93
2018-06-29T00:47:52.734Z,23.91
2018-06-29T00:48:52.912Z,23.88
2018-06-29T00:49:53.086Z,23.94
2018-06-29T00:50:53.267Z,23.93
2018-06-29T00:51:53.435Z,23.93
2018-06-29T00:52:53.613Z,23.72
2018-06-29T00:53:53.785Z,23.73
2018-06-29T00:54:53.952Z,23.75
2018-06-29T00:55:54.128Z,23.79
2018-06-29T00:56:54.297Z,23.70
2018-06-29T00:57:54.478Z,23.76
2018-06-29T00:58:54.651Z,23.80
2018-06-29T00:59:54.824Z,23.85
2018-06-29T01:00:55.008Z,23.88
2018-06-29T01:01:55.175Z,23.83
2018-06-29T01:02:55.740Z,23.72
2018-06-29T01:03:56.813Z,23.80
2018-06-29T01:04:55.696Z,23.87
2018-06-29T01:05:56.272Z,23.88
2018-06-29T01:06:56.496Z,23.88
2018-06-29T01:07:56.816Z,23.85
2018-06-29T01:08:56.783Z,23.88
2018-06-29T01:09:57.000Z,23.88
2018-06-29T01:10:57.148Z,23.83
2018-06-29T01:11:57.265Z,23.84
2018-06-29T01:12:57.455Z,23.83
2018-06-29T01:13:57.208Z,23.75
2018-06-29T01:14:57.382Z,23.76
2018-06-29T01:15:57.545Z,23.73
2018-06-29T01:16:57.839Z,23.75
2018-06-29T01:17:57.892Z,23.75
2018-06-29T01:18:58.061Z,23.68
2018-06-29T01:19:58.237Z,23.69
2018-06-29T01:20:58.407Z,23.65
2018-06-29T01:21:58.578Z,23.73
2018-06-29T01:22:58.745Z,23.68
2018-06-29T01:23:58.919Z,23.66
2018-06-29T01:24:59.099Z,23.58
2018-06-29T01:25:59.275Z,23.66
2018-06-29T01:26:59.447Z,23.70
2018-06-29T01:27:59.613Z,23.66
2018-06-29T01:28:59.783Z,23.57
2018-06-29T01:29:59.953Z,23.75
2018-06-29T01:31:00.127Z,23.66
2018-06-29T01:32:00.294Z,23.66
2018-06-29T01:33:00.468Z,23.70
2018-06-29T01:34:00.637Z,23.72
2018-06-29T01:35:00.814Z,23.72
2018-06-29T01:36:00.987Z,23.70
2018-06-29T01:37:01.162Z,23.69
2018-06-29T01:38:01.340Z,23.72
2018-06-29T01:39:01.520Z,23.63
2018-06-29T01:40:01.692Z,23.54
2018-06-29T01:41:01.863Z,23.50
2018-06-29T01:42:02.029Z,23.60
2018-06-29T01:43:02.200Z,23.51
2018-06-29T01:44:02.375Z,23.46
2018-06-29T01:45:02.545Z,23.54
2018-06-29T01:46:02.712Z,23.47
2018-06-29T01:47:02.890Z,23.40
2018-06-29T01:48:03.062Z,23.43
2018-06-29T01:49:03.234Z,23.50
2018-06-29T01:50:03.407Z,23.46
2018-06-29T01:51:03.577Z,23.47
2018-06-29T01:52:03.744Z,23.38
2018-06-29T01:53:03.913Z,23.35
2018-06-29T01:54:04.085Z,23.28
2018-06-29T01:55:04.264Z,23.20
2018-06-29T01:56:04.429Z,23.20
2018-06-29T01:57:04.605Z,23.22
2018-06-29T01:58:04.777Z,23.35
2018-06-29T01:59:04.951Z,23.35
2018-06-29T02:00:05.128Z,23.39
2018-06-29T02:01:05.297Z,23.39
2018-06-29T02:02:05.470Z,23.46
2018-06-29T02:03:05.649Z,23.40
2018-06-29T02:04:05.815Z,23.39
2018-06-29T02:05:05.992Z,23.36
2018-06-29T02:06:06.161Z,23.28
2018-06-29T02:07:06.333Z,23.32
2018-06-29T02:08:06.564Z,23.19
2018-06-29T02:09:06.676Z,23.32
2018-06-29T02:10:06.844Z,23.27
2018-06-29T02:11:07.017Z,23.28
2018-06-29T02:12:07.185Z,23.28
2018-06-29T02:13:07.355Z,23.36
2018-06-29T02:14:07.534Z,23.28
2018-06-29T02:15:07.701Z,23.31
2018-06-29T02:16:07.873Z,23.35
2018-06-29T02:17:08.039Z,23.42
2018-06-29T02:18:08.217Z,23.36
2018-06-29T02:19:08.399Z,23.48
2018-06-29T02:20:08.579Z,23.48
2018-06-29T02:21:08.745Z,23.53
2018-06-29T02:22:08.912Z,23.63
2018-06-29T02:23:09.085Z,23.63
2018-06-29T02:24:09.258Z,23.60
2018-06-29T02:25:09.430Z,23.55
2018-06-29T02:26:09.606Z,23.73
2018-06-29T02:27:09.772Z,23.69
2018-06-29T02:28:09.950Z,23.66
2018-06-29T02:29:10.144Z,23.73
2018-06-29T02:30:10.299Z,23.78
2018-06-29T02:31:10.470Z,23.63
2018-06-29T02:32:10.645Z,23.57
2018-06-29T02:33:10.816Z,23.51
2018-06-29T02:34:10.995Z,23.31
2018-06-29T02:35:11.161Z,23.10
2018-06-29T02:36:11.345Z,23.16
2018-06-29T02:37:11.528Z,23.10
2018-06-29T02:38:11.694Z,23.02
2018-06-29T02:39:11.871Z,23.04
2018-06-29T02:40:12.050Z,23.07
2018-06-29T02:41:12.207Z,23.10
2018-06-29T02:42:12.385Z,23.09
2018-06-29T02:43:12.564Z,23.09
2018-06-29T02:44:12.734Z,23.05
2018-06-29T02:45:12.912Z,23.09
2018-06-29T02:46:13.088Z,23.05
2018-06-29T02:47:13.257Z,23.05
2018-06-29T02:48:13.431Z,23.05
2018-06-29T02:49:13.601Z,23.13
2018-06-29T02:50:13.774Z,22.97
2018-06-29T02:51:13.948Z,23.17
2018-06-29T02:52:14.123Z,23.27
2018-06-29T02:53:14.290Z,23.22
2018-06-29T02:54:14.464Z,23.35
2018-06-29T02:55:14.637Z,23.28
2018-06-29T02:56:14.806Z,23.31
2018-06-29T02:57:14.975Z,23.32
2018-06-29T02:58:15.146Z,23.31
2018-06-29T02:59:15.320Z,23.32
2018-06-29T03:00:15.494Z,23.33
2018-06-29T03:01:15.664Z,23.36
2018-06-29T03:02:15.841Z,23.42
2018-06-29T03:03:16.011Z,23.39
2018-06-29T03:04:16.191Z,23.40
2018-06-29T03:05:16.364Z,23.46
2018-06-29T03:06:16.536Z,23.46
2018-06-29T03:07:16.705Z,23.43
2018-06-29T03:08:16.880Z,23.28
2018-06-29T03:09:17.049Z,23.20
2018-06-29T03:10:17.222Z,23.23
2018-06-29T03:11:17.389Z,23.09
2018-06-29T03:12:17.566Z,23.09
2018-06-29T03:13:17.734Z,23.05
2018-06-29T03:14:17.908Z,23.09
2018-06-29T03:15:18.090Z,23.12
2018-06-29T03:16:18.255Z,23.09
2018-06-29T03:17:18.436Z,23.05
2018-06-29T03:18:18.606Z,23.12
2018-06-29T03:19:18.779Z,22.98
2018-06-29T03:20:18.947Z,23.01
2018-06-29T03:21:19.116Z,23.16
2018-06-29T03:22:19.291Z,23.17
2018-06-29T03:23:19.471Z,23.13
2018-06-29T03:24:19.643Z,23.07
2018-06-29T03:25:19.886Z,23.10
2018-06-29T03:26:19.987Z,23.04
2018-06-29T03:27:20.157Z,23.15
2018-06-29T03:28:20.323Z,23.19
2018-06-29T03:29:20.493Z,23.22
2018-06-29T03:30:20.670Z,23.17
2018-06-29T03:31:20.846Z,23.16
2018-06-29T03:32:21.021Z,23.09
2018-06-29T03:33:21.190Z,23.04
2018-06-29T03:34:21.367Z,23.12
2018-06-29T03:35:21.541Z,23.13
2018-06-29T03:36:21.722Z,23.01
2018-06-29T03:37:21.885Z,22.97
2018-06-29T03:38:22.057Z,23.01
2018-06-29T03:39:22.224Z,22.97
2018-06-29T03:40:22.467Z,23.13
2018-06-29T03:41:22.563Z,23.12
2018-06-29T03:42:22.742Z,23.09
2018-06-29T03:43:22.920Z,23.07
2018-06-29T03:44:23.087Z,23.17
2018-06-29T03:45:23.259Z,23.15
2018-06-29T03:46:23.432Z,23.20
2018-06-29T03:47:23.597Z,23.32
2018-06-29T03:48:23.774Z,23.33
2018-06-29T03:49:23.973Z,23.40
2018-06-29T03:50:24.114Z,23.39
2018-06-29T03:51:24.286Z,23.48
2018-06-29T03:52:24.460Z,23.54
2018-06-29T03:53:24.631Z,23.54
2018-06-29T03:54:24.803Z,23.65
2018-06-29T03:55:24.967Z,23.63
2018-06-29T03:56:25.146Z,23.69
2018-06-29T03:57:25.320Z,23.63
2018-06-29T03:58:25.485Z,23.63
2018-06-29T03:59:25.657Z,23.70
2018-06-29T04:00:25.834Z,23.80
2018-06-29T04:01:26.004Z,23.85
2018-06-29T04:02:26.184Z,23.85
2018-06-29T04:03:26.365Z,23.88
2018-06-29T04:04:26.537Z,23.95
2018-06-29T04:05:26.704Z,24.02
2018-06-29T04:06:26.876Z,24.03
2018-06-29T04:07:27.061Z,24.16
2018-06-29T04:08:27.236Z,24.08
2018-06-29T04:09:27.408Z,24.21
2018-06-29T04:10:27.587Z,24.18
2018-06-29T04:11:27.756Z,24.32
2018-06-29T04:12:27.937Z,24.30
2018-06-29T04:13:28.089Z,24.35
2018-06-29T04:14:28.267Z,24.39
2018-06-29T04:15:28.435Z,24.37
2018-06-29T04:16:28.606Z,24.43
2018-06-29T04:17:28.778Z,24.45
2018-06-29T04:18:28.947Z,24.40
2018-06-29T04:19:29.123Z,24.39
2018-06-29T04:20:29.295Z,24.37
2018-06-29T04:21:29.466Z,24.39
2018-06-29T04:22:29.636Z,24.34
2018-06-29T04:23:29.806Z,24.31
2018-06-29T04:24:29.989Z,24.45
2018-06-29T04:25:30.164Z,24.40
2018-06-29T04:26:30.416Z,24.43
2018-06-29T04:27:30.508Z,24.45
2018-06-29T04:28:30.678Z,24.50
2018-06-29T04:29:30.849Z,24.37
2018-06-29T04:30:31.025Z,24.43
2018-06-29T04:31:31.196Z,24.35
2018-06-29T04:32:31.373Z,24.35
2018-06-29T04:33:31.546Z,24.39
2018-06-29T04:34:31.715Z,24.47
2018-06-29T04:35:31.890Z,24.50
2018-06-29T04:36:32.070Z,24.52
2018-06-29T04:37:32.248Z,24.43
2018-06-29T04:38:32.414Z,24.55
2018-06-29T04:39:32.586Z,24.47
2018-06-29T04:40:32.755Z,24.53
2018-06-29T04:41:32.928Z,24.49
2018-06-29T04:42:33.107Z,24.61
2018-06-29T04:43:33.274Z,24.58
2018-06-29T04:44:33.443Z,24.64
2018-06-29T04:45:33.617Z,24.65
2018-06-29T04:46:33.791Z,24.69
2018-06-29T04:47:33.962Z,24.77
2018-06-29T04:48:34.135Z,24.80
2018-06-29T04:49:34.308Z,24.81
2018-06-29T04:50:34.473Z,24.73
2018-06-29T04:51:34.644Z,24.81
2018-06-29T04:52:34.822Z,24.64
2018-06-29T04:53:34.993Z,24.62
2018-06-29T04:54:35.162Z,24.64
2018-06-29T04:55:35.337Z,24.65
2018-06-29T04:56:35.507Z,24.64
2018-06-29T04:57:35.674Z,24.65
2018-06-29T04:58:35.854Z,24.68
2018-06-29T04:59:36.022Z,24.65
2018-06-29T05:00:36.194Z,24.62
2018-06-29T05:01:36.375Z,24.62
2018-06-29T05:02:36.543Z,24.69
2018-06-29T05:03:36.715Z,24.67
2018-06-29T05:04:36.881Z,24.64
2018-06-29T05:05:37.056Z,24.76
2018-06-29T05:06:37.229Z,24.78
2018-06-29T05:07:37.408Z,24.83
2018-06-29T05:08:37.572Z,24.91
2018-06-29T05:09:37.744Z,24.87
2018-06-29T05:10:37.913Z,24.90
2018-06-29T05:11:38.083Z,24.91
2018-06-29T05:12:38.258Z,25.00
2018-06-29T05:13:38.440Z,25.05
2018-06-29T05:14:38.616Z,25.14
2018-06-29T05:15:38.788Z,25.14
2018-06-29T05:16:38.962Z,25.23
2018-06-29T05:17:39.136Z,25.33
2018-06-29T05:18:39.305Z,25.35
2018-06-29T05:19:39.475Z,25.30
2018-06-29T05:20:39.642Z,25.43
2018-06-29T05:21:39.821Z,25.45
2018-06-29T05:22:39.997Z,25.38
2018-06-29T05:23:40.168Z,25.43
2018-06-29T05:24:40.344Z,25.58
2018-06-29T05:25:40.931Z,25.51
2018-06-29T05:26:41.154Z,25.45
2018-06-29T05:27:40.900Z,25.55
2018-06-29T05:28:41.168Z,25.61
2018-06-29T05:29:41.244Z,25.65
2018-06-29T05:30:41.411Z,25.62
2018-06-29T05:31:41.580Z,25.73
2018-06-29T05:32:41.757Z,25.72
2018-06-29T05:33:41.932Z,25.72
2018-06-29T05:34:42.097Z,25.73
2018-06-29T05:35:42.275Z,25.72
2018-06-29T05:36:42.448Z,25.70
2018-06-29T05:37:42.622Z,25.79
2018-06-29T05:38:42.798Z,25.72
2018-06-29T05:39:42.976Z,25.79
2018-06-29T05:40:43.146Z,25.80
2018-06-29T05:41:43.389Z,25.82
2018-06-29T05:42:43.581Z,25.80
2018-06-29T05:43:43.663Z,25.88
2018-06-29T05:44:43.837Z,25.95
2018-06-29T05:45:44.009Z,25.88
2018-06-29T05:46:44.182Z,25.95
2018-06-29T05:47:44.350Z,25.90
2018-06-29T05:48:44.525Z,26.07
2018-06-29T05:49:44.720Z,26.01
2018-06-29T05:50:44.877Z,26.02
2018-06-29T05:51:45.072Z,25.91
2018-06-29T05:52:45.227Z,26.05
2018-06-29T05:53:45.401Z,26.05
2018-06-29T05:54:45.568Z,26.07
2018-06-29T05:55:45.746Z,26.12
2018-06-29T05:56:45.917Z,26.07
2018-06-29T05:57:46.096Z,26.17
2018-06-29T05:58:46.263Z,26.28
2018-06-29T05:59:46.436Z,26.28
2018-06-29T06:00:46.608Z,26.26
2018-06-29T06:01:46.782Z,26.32
2018-06-29T06:02:46.954Z,26.28
2018-06-29T06:03:47.125Z,26.35
2018-06-29T06:04:47.368Z,26.30
2018-06-29T06:05:47.477Z,26.33
2018-06-29T06:06:47.650Z,26.44
2018-06-29T06:07:47.827Z,26.39
2018-06-29T06:08:48.003Z,26.35
2018-06-29T06:09:48.176Z,26.44
2018-06-29T06:10:48.352Z,26.44
2018-06-29T06:11:48.527Z,26.37
2018-06-29T06:12:48.705Z,26.40
2018-06-29T06:13:48.889Z,26.48
2018-06-29T06:14:49.059Z,26.54
2018-06-29T06:15:49.237Z,26.58
2018-06-29T06:16:49.406Z,26.58
2018-06-29T06:17:49.585Z,26.55
2018-06-29T06:18:49.764Z,26.60
2018-06-29T06:19:49.938Z,26.66
2018-06-29T06:20:50.107Z,26.63
2018-06-29T06:21:50.314Z,26.66
2018-06-29T06:22:50.455Z,26.72
2018-06-29T06:23:50.628Z,26.72
2018-06-29T06:24:50.798Z,26.67
2018-06-29T06:25:50.976Z,26.75
2018-06-29T06:26:51.147Z,26.82
2018-06-29T06:27:51.318Z,26.82
2018-06-29T06:28:51.493Z,26.87
2018-06-29T06:29:51.665Z,26.82
2018-06-29T06:30:51.836Z,26.85
2018-06-29T06:31:52.011Z,26.94
2018-06-29T06:32:52.184Z,26.99
2018-06-29T06:33:52.360Z,27.13
2018-06-29T06:34:52.533Z,27.13
2018-06-29T06:35:52.708Z,27.17
2018-06-29T06:36:52.879Z,27.22
2018-06-29T06:37:53.055Z,27.18
2018-06-29T06:38:53.233Z,27.29
2018-06-29T06:39:53.407Z,27.41
2018-06-29T06:40:53.581Z,27.37
2018-06-29T06:41:53.759Z,27.34
2018-06-29T06:42:53.929Z,27.40
2018-06-29T06:43:54.101Z,27.34
2018-06-29T06:44:54.274Z,27.41
2018-06-29T06:45:54.459Z,27.31
2018-06-29T06:46:54.672Z,27.40
2018-06-29T06:47:54.795Z,27.47
2018-06-29T06:48:54.975Z,27.47
2018-06-29T06:49:55.146Z,27.55
2018-06-29T06:50:55.318Z,27.57
2018-06-29T06:51:55.489Z,27.49
2018-06-29T06:52:55.673Z,27.43
2018-06-29T06:53:55.853Z,27.40
2018-06-29T06:54:56.023Z,27.50
2018-06-29T06:55:56.202Z,27.41
2018-06-29T06:56:56.374Z,27.43
2018-06-29T06:57:56.548Z,27.54
2018-06-29T06:58:56.721Z,27.54
2018-06-29T06:59:56.890Z,27.59
2018-06-29T07:00:57.064Z,27.69
2018-06-29T07:01:57.240Z,27.59
2018-06-29T07:02:57.436Z,27.70
2018-06-29T07:03:57.607Z,27.72
2018-06-29T07:04:57.785Z,27.75
2018-06-29T07:05:57.964Z,27.72
2018-06-29T07:06:58.137Z,27.78
2018-06-29T07:07:58.316Z,27.75
2018-06-29T07:08:58.486Z,27.70
2018-06-29T07:09:58.657Z,27.78
2018-06-29T07:10:58.832Z,27.75
2018-06-29T07:11:59.003Z,27.87
2018-06-29T07:12:59.224Z,27.72
2018-06-29T07:13:59.334Z,27.92
2018-06-29T07:14:59.512Z,27.90
2018-06-29T07:15:59.680Z,28.03
2018-06-29T07:16:59.857Z,27.99
2018-06-29T07:18:00.027Z,27.99
2018-06-29T07:19:00.207Z,27.94
2018-06-29T07:20:00.377Z,27.96
2018-06-29T07:21:00.562Z,28.00
2018-06-29T07:22:00.736Z,28.11
2018-06-29T07:23:00.914Z,28.02
2018-06-29T07:24:01.081Z,27.97
2018-06-29T07:25:01.254Z,28.06
2018-06-29T07:26:01.434Z,28.17
2018-06-29T07:27:01.607Z,28.09
2018-06-29T07:28:01.799Z,28.17
2018-06-29T07:29:01.968Z,28.19
2018-06-29T07:30:02.156Z,28.14
2018-06-29T07:31:02.315Z,28.15
2018-06-29T07:32:02.484Z,28.33
2018-06-29T07:33:02.660Z,28.30
2018-06-29T07:34:02.836Z,28.39
2018-06-29T07:35:03.007Z,28.30
2018-06-29T07:36:03.182Z,28.36
2018-06-29T07:37:03.351Z,28.33
2018-06-29T07:38:03.525Z,28.34
2018-06-29T07:39:03.701Z,28.40
2018-06-29T07:40:03.874Z,28.49
2018-06-29T07:41:04.051Z,28.49
2018-06-29T07:42:04.219Z,28.51
2018-06-29T07:43:04.399Z,28.51
2018-06-29T07:44:04.575Z,28.52
2018-06-29T07:45:04.747Z,28.49
2018-06-29T07:46:04.915Z,28.58
2018-06-29T07:47:05.100Z,28.59
2018-06-29T07:48:05.272Z,28.64
2018-06-29T07:49:05.451Z,28.61
2018-06-29T07:50:05.630Z,28.67
2018-06-29T07:51:05.798Z,28.67
2018-06-29T07:52:05.981Z,28.73
2018-06-29T07:53:06.150Z,28.78
2018-06-29T07:54:06.330Z,28.77
2018-06-29T07:55:06.503Z,28.67
2018-06-29T07:56:06.730Z,28.71
2018-06-29T07:57:06.853Z,28.70
2018-06-29T07:58:07.091Z,28.61
2018-06-29T07:59:07.221Z,28.59
2018-06-29T08:00:07.378Z,28.68
2018-06-29T08:01:07.554Z,28.64
2018-06-29T08:02:07.727Z,28.66
2018-06-29T08:03:07.916Z,28.68
2018-06-29T08:04:08.095Z,28.66
2018-06-29T08:05:08.277Z,28.71
2018-06-29T08:06:08.452Z,28.74
2018-06-29T08:07:08.628Z,28.77
2018-06-29T08:08:08.844Z,28.64
2018-06-29T08:09:08.973Z,28.76
2018-06-29T08:10:09.155Z,28.80
2018-06-29T08:11:09.336Z,28.83
2018-06-29T08:12:09.512Z,28.89
2018-06-29T08:13:09.687Z,28.90
2018-06-29T08:14:09.876Z,28.98
2018-06-29T08:15:10.045Z,28.98
2018-06-29T08:16:10.214Z,28.98
2018-06-29T08:17:10.392Z,29.11
2018-06-29T08:18:10.563Z,29.11
2018-06-29T08:19:10.736Z,29.14
2018-06-29T08:20:10.920Z,29.06
2018-06-29T08:21:11.097Z,29.14
2018-06-29T08:22:11.271Z,29.15
2018-06-29T08:23:11.449Z,29.14
2018-06-29T08:24:11.625Z,29.15
2018-06-29T08:25:11.811Z,29.24
2018-06-29T08:26:11.975Z,29.30
2018-06-29T08:27:12.151Z,29.34
2018-06-29T08:28:12.330Z,29.41
2018-06-29T08:29:12.503Z,29.51
2018-06-29T08:30:12.672Z,29.53
2018-06-29T08:31:12.852Z,29.58
2018-06-29T08:32:13.026Z,29.53
2018-06-29T08:33:13.203Z,29.65
2018-06-29T08:34:13.378Z,29.67
2018-06-29T08:35:13.555Z,29.70
2018-06-29T08:36:13.728Z,29.79
2018-06-29T08:37:13.909Z,29.74
2018-06-29T08:38:14.085Z,29.82
2018-06-29T08:39:14.260Z,29.83
2018-06-29T08:40:14.435Z,29.79
2018-06-29T08:41:14.611Z,29.80
2018-06-29T08:42:14.785Z,29.71
2018-06-29T08:43:14.953Z,29.65
2018-06-29T08:44:15.181Z,29.73
2018-06-29T08:45:15.313Z,29.74
2018-06-29T08:46:15.486Z,29.87
2018-06-29T08:47:15.666Z,29.87
2018-06-29T08:48:15.838Z,29.83
2018-06-29T08:49:16.016Z,29.85
2018-06-29T08:50:16.185Z,29.89
2018-06-29T08:51:16.361Z,29.80
2018-06-29T08:52:16.610Z,29.83
2018-06-29T08:53:16.715Z,29.82
2018-06-29T08:54:16.899Z,29.86
2018-06-29T08:55:17.076Z,29.90
2018-06-29T08:56:17.250Z,30.10
2018-06-29T08:57:17.422Z,30.19
2018-06-29T08:58:17.603Z,30.23
2018-06-29T08:59:17.773Z,30.27
2018-06-29T09:00:17.959Z,30.39
2018-06-29T09:01:18.126Z,30.46
2018-06-29T09:02:18.312Z,30.45
2018-06-29T09:03:18.481Z,30.35
2018-06-29T09:04:18.661Z,30.32
2018-06-29T09:05:18.835Z,30.47
2018-06-29T09:06:19.014Z,30.55
2018-06-29T09:07:19.186Z,30.62
2018-06-29T09:08:19.363Z,30.60
2018-06-29T09:09:19.554Z,30.58
2018-06-29T09:10:19.731Z,30.70
2018-06-29T09:11:19.902Z,30.67
2018-06-29T09:12:20.085Z,30.72
2018-06-29T09:13:20.253Z,30.77
2018-06-29T09:14:20.428Z,30.80
2018-06-29T09:15:20.608Z,30.98
2018-06-29T09:16:20.786Z,30.99
2018-06-29T09:17:20.960Z,31.10
2018-06-29T09:18:21.135Z,31.01
2018-06-29T09:19:21.310Z,30.92
2018-06-29T09:20:21.484Z,31.09
2018-06-29T09:21:21.666Z,31.14
2018-06-29T09:22:21.841Z,31.25
2018-06-29T09:23:22.021Z,31.31
2018-06-29T09:24:22.258Z,31.61
2018-06-29T09:25:22.372Z,31.66
2018-06-29T09:26:22.547Z,31.75
2018-06-29T09:27:22.719Z,31.95
2018-06-29T09:28:22.890Z,32.55
2018-06-29T09:29:23.066Z,33.12
2018-06-29T09:30:23.242Z,33.97
2018-06-29T09:31:23.419Z,34.97
2018-06-29T09:32:23.600Z,36.03
2018-06-29T09:33:23.782Z,37.07
2018-06-29T09:34:23.954Z,38.12
2018-06-29T09:35:24.137Z,38.76
2018-06-29T09:36:24.371Z,39.60
2018-06-29T09:37:24.491Z,40.07
2018-06-29T09:38:24.675Z,40.41
2018-06-29T09:39:24.856Z,41.02
2018-06-29T09:40:25.033Z,41.42
2018-06-29T09:41:25.215Z,41.73
2018-06-29T09:42:25.423Z,41.96
2018-06-29T09:43:25.607Z,42.11
2018-06-29T09:44:25.752Z,42.06
2018-06-29T09:45:25.946Z,42.46
2018-06-29T09:46:26.131Z,42.68
2018-06-29T09:47:26.316Z,42.84
2018-06-29T09:48:26.492Z,43.40
2018-06-29T09:49:26.682Z,43.59
2018-06-29T09:50:26.865Z,43.68
2018-06-29T09:51:27.047Z,43.97
2018-06-29T09:52:27.234Z,43.98
2018-06-29T09:53:27.429Z,44.07
2018-06-29T09:54:27.614Z,44.37
2018-06-29T09:55:27.805Z,44.56
2018-06-29T09:56:27.991Z,44.26
2018-06-29T09:57:28.176Z,44.37
2018-06-29T09:58:28.362Z,44.71
2018-06-29T09:59:28.550Z,44.83
2018-06-29T10:00:28.734Z,44.95
2018-06-29T10:01:29.043Z,45.23
2018-06-29T10:02:31.690Z,45.38
2018-06-29T10:03:29.307Z,45.47
2018-06-29T10:04:29.495Z,45.12
2018-06-29T10:05:29.687Z,45.45
2018-06-29T10:06:29.892Z,45.43
2018-06-29T10:07:30.060Z,45.57
2018-06-29T10:08:30.253Z,45.85
2018-06-29T10:09:30.446Z,45.99
2018-06-29T10:10:30.639Z,46.21
2018-06-29T10:11:30.825Z,46.26
2018-06-29T10:12:31.012Z,46.26
2018-06-29T10:13:31.205Z,46.31
2018-06-29T10:14:31.479Z,46.15
2018-06-29T10:15:31.596Z,46.21
2018-06-29T10:16:31.786Z,45.95
2018-06-29T10:17:31.966Z,46.01
2018-06-29T10:18:32.169Z,46.08
2018-06-29T10:19:32.402Z,46.30
2018-06-29T10:20:32.547Z,46.46
2018-06-29T10:21:32.738Z,46.35
2018-06-29T10:22:33.022Z,46.45
2018-06-29T10:23:33.126Z,46.58
2018-06-29T10:24:33.309Z,46.72
2018-06-29T10:25:33.611Z,46.83
2018-06-29T10:26:33.692Z,47.17
2018-06-29T10:27:33.887Z,47.05
2018-06-29T10:28:34.088Z,47.10
2018-06-29T10:29:34.279Z,47.21
2018-06-29T10:30:34.471Z,47.14
2018-06-29T10:31:34.658Z,47.37
2018-06-29T10:32:34.850Z,47.22
2018-06-29T10:33:35.054Z,47.21
2018-06-29T10:34:35.243Z,47.56
2018-06-29T10:35:35.435Z,47.12
2018-06-29T10:36:35.630Z,47.19
2018-06-29T10:37:35.824Z,47.09
2018-06-29T10:38:36.018Z,47.02
2018-06-29T10:39:36.211Z,47.41
2018-06-29T10:40:36.403Z,47.90
2018-06-29T10:41:36.592Z,47.90
2018-06-29T10:42:36.786Z,47.61
2018-06-29T10:43:36.978Z,47.78
2018-06-29T10:44:37.177Z,47.92
2018-06-29T10:45:37.360Z,48.13
2018-06-29T10:46:37.564Z,47.88
2018-06-29T10:47:37.753Z,47.64
2018-06-29T10:48:37.953Z,47.31
2018-06-29T10:49:38.149Z,47.66
2018-06-29T10:50:38.347Z,47.63
2018-06-29T10:51:38.542Z,47.98
2018-06-29T10:52:38.729Z,48.26
2018-06-29T10:53:38.929Z,48.66
2018-06-29T10:54:39.123Z,48.71
2018-06-29T10:55:39.319Z,49.01
2018-06-29T10:56:39.512Z,49.24
2018-06-29T10:57:39.699Z,49.44
2018-06-29T10:58:39.956Z,49.06
2018-06-29T10:59:40.107Z,48.70
2018-06-29T11:00:40.295Z,48.58
2018-06-29T11:01:40.503Z,48.99
2018-06-29T11:02:40.694Z,49.08
2018-06-29T11:03:40.894Z,48.98
2018-06-29T11:04:41.088Z,49.10
2018-06-29T11:05:41.286Z,49.32
2018-06-29T11:06:41.483Z,49.22
2018-06-29T11:07:41.690Z,48.69
2018-06-29T11:08:41.876Z,48.96
2018-06-29T11:09:42.076Z,49.21
2018-06-29T11:10:42.276Z,49.40
2018-06-29T11:11:42.470Z,48.89
2018-06-29T11:12:42.670Z,48.78
2018-06-29T11:13:42.870Z,48.60
2018-06-29T11:14:43.066Z,48.94
2018-06-29T11:15:43.264Z,48.98
2018-06-29T11:16:43.457Z,48.89
2018-06-29T11:17:43.652Z,49.08
2018-06-29T11:18:43.851Z,49.43
2018-06-29T11:19:44.053Z,49.52
2018-06-29T11:20:44.252Z,49.39
2018-06-29T11:21:44.453Z,48.91
2018-06-29T11:22:44.648Z,48.67
2018-06-29T11:23:44.848Z,49.13
2018-06-29T11:24:45.041Z,49.44
2018-06-29T11:25:45.250Z,49.62
2018-06-29T11:26:45.448Z,49.58
2018-06-29T11:27:45.645Z,49.28
2018-06-29T11:28:45.843Z,49.34
2018-06-29T11:29:46.039Z,49.62
2018-06-29T11:30:46.238Z,49.82
2018-06-29T11:31:46.433Z,50.12
2018-06-29T11:32:46.633Z,50.01
2018-06-29T11:33:46.827Z,50.44
2018-06-29T11:34:47.036Z,50.42
2018-06-29T11:35:47.226Z,50.27
2018-06-29T11:36:47.481Z,50.55
2018-06-29T11:37:47.631Z,50.66
2018-06-29T11:38:47.817Z,50.59
2018-06-29T11:39:48.012Z,50.71
2018-06-29T11:40:48.214Z,50.76
2018-06-29T11:41:48.418Z,50.57
2018-06-29T11:42:48.615Z,50.23
2018-06-29T11:43:48.818Z,50.12
2018-06-29T11:44:49.016Z,49.78
2018-06-29T11:45:49.211Z,49.46
2018-06-29T11:46:49.407Z,49.79
2018-06-29T11:47:49.608Z,50.09
2018-06-29T11:48:49.806Z,49.62
2018-06-29T11:49:50.009Z,49.93
2018-06-29T11:50:50.208Z,50.16
2018-06-29T11:51:50.406Z,50.27
2018-06-29T11:52:50.647Z,49.47
2018-06-29T11:53:50.808Z,49.74
2018-06-29T11:54:51.000Z,49.99
2018-06-29T11:55:51.216Z,49.79
2018-06-29T11:56:51.414Z,49.79
2018-06-29T11:57:51.613Z,50.01
2018-06-29T11:58:51.816Z,49.40
2018-06-29T11:59:52.021Z,49.78
2018-06-29T12:00:52.234Z,49.84
2018-06-29T12:01:52.430Z,49.70
2018-06-29T12:02:52.640Z,49.96
2018-06-29T12:03:52.828Z,49.89
2018-06-29T12:04:53.032Z,50.40
2018-06-29T12:05:53.243Z,50.54
2018-06-29T12:06:53.519Z,50.50
2018-06-29T12:07:53.620Z,50.61
2018-06-29T12:08:53.822Z,49.65
2018-06-29T12:09:54.012Z,50.19
2018-06-29T12:10:54.216Z,50.54
2018-06-29T12:11:56.084Z,50.83
2018-06-29T12:12:54.543Z,49.89
2018-06-29T12:13:54.747Z,50.31
2018-06-29T12:14:54.958Z,50.50
2018-06-29T12:15:55.147Z,50.55
2018-06-29T12:16:55.353Z,50.47
2018-06-29T12:17:55.552Z,50.30
2018-06-29T12:18:55.747Z,50.27
2018-06-29T12:19:55.947Z,50.19
2018-06-29T12:20:56.146Z,50.00
2018-06-29T12:21:56.399Z,50.31
2018-06-29T12:22:56.599Z,50.69
2018-06-29T12:23:56.800Z,50.71
2018-06-29T12:24:57.003Z,50.89
2018-06-29T12:25:57.200Z,50.86
2018-06-29T12:26:57.405Z,49.74
2018-06-29T12:27:58.397Z,49.93
2018-06-29T12:28:57.798Z,50.03
2018-06-29T12:29:58.001Z,50.23
2018-06-29T12:30:58.194Z,49.59
2018-06-29T12:31:58.398Z,49.67
2018-06-29T12:32:58.599Z,50.01
2018-06-29T12:33:58.812Z,50.45
2018-06-29T12:34:59.039Z,50.90
2018-06-29T12:36:52.381Z,51.15
2018-06-29T12:37:52.688Z,51.30
2018-06-29T12:38:53.005Z,51.15
2018-06-29T12:39:52.996Z,50.73
2018-06-29T12:40:53.580Z,50.81
2018-06-29T12:41:53.484Z,50.86
2018-06-29T12:42:54.025Z,50.86
2018-06-29T12:43:54.463Z,50.15
2018-06-29T12:44:54.143Z,49.85
2018-06-29T12:45:54.575Z,49.34
2018-06-29T12:46:54.436Z,48.63
2018-06-29T12:47:54.767Z,47.05
2018-06-29T12:48:55.094Z,46.19
2018-06-29T12:49:55.041Z,45.31
2018-06-29T12:50:55.362Z,44.76
2018-06-29T12:51:55.425Z,44.26
2018-06-29T12:52:55.596Z,43.97
2018-06-29T12:53:55.791Z,43.41
2018-06-29T12:54:55.986Z,42.64
2018-06-29T12:55:56.224Z,42.08
2018-06-29T12:56:56.372Z,41.80